Time;durP1;ratioP1;P1;durP2;ratioP2;P2;SDS_P1;SDS_P2;PMS_P1;PMS_P2;Temp;Humidity;BMP_temperature;BMP_pressure;BME280_temperature;BME280_humidity;BME280_pressure;Samples;Min_cycle;Max_cycle;Signal;HPM_P1;HPM_P2
2023/10/21 00:00:55;;;;;;;21.10;5.33;;;;;;;20.83;52.19;98725.40;1464359;88;21524;-79
2023/10/21 00:03:21;;;;;;;17.25;5.25;;;;;;;20.85;52.29;98719.23;1459156;89;21413;-80
2023/10/21 00:05:47;;;;;;;20.15;4.65;;;;;;;20.85;52.26;98727.30;1446018;89;22626;-80
2023/10/21 00:08:13;;;;;;;16.65;4.92;;;;;;;20.86;52.23;98720.84;1462975;88;21984;-79
2023/10/21 00:10:39;;;;;;;17.42;5.97;;;;;;;20.83;52.07;98715.98;1463392;89;21347;-81
2023/10/21 00:13:05;;;;;;;20.55;4.62;;;;;;;20.84;51.79;98723.01;1461817;88;22343;-80
2023/10/21 00:15:31;;;;;;;16.30;4.95;;;;;;;20.85;51.90;98733.48;1461247;89;21450;-80
2023/10/21 00:17:58;;;;;;;18.20;5.25;;;;;;;20.84;51.97;98731.88;1461565;89;21413;-80
2023/10/21 00:20:24;;;;;;;17.65;4.78;;;;;;;20.83;52.13;98737.50;1462625;88;21472;-80
2023/10/21 00:22:50;;;;;;;17.12;4.95;;;;;;;20.80;51.95;98733.47;1459620;88;21472;-81
2023/10/21 00:25:18;;;;;;;30.15;4.62;;;;;;;20.80;51.71;98731.29;1459352;89;21341;-81
2023/10/21 00:27:44;;;;;;;20.48;4.65;;;;;;;20.79;51.90;98733.70;1462133;88;21391;-81
2023/10/21 00:30:11;;;;;;;21.25;5.25;;;;;;;20.77;51.44;98741.20;1461438;88;22271;-81
2023/10/21 00:32:38;;;;;;;16.90;5.10;;;;;;;20.78;51.35;98740.97;1465420;88;21376;-81
2023/10/21 00:35:04;;;;;;;23.10;4.37;;;;;;;20.80;51.68;98738.01;1460746;88;21375;-79
2023/10/21 00:37:31;;;;;;;26.70;7.05;;;;;;;20.80;51.18;98748.77;1464869;88;21491;-79
2023/10/21 00:39:57;;;;;;;22.67;5.87;;;;;;;20.83;50.63;98747.73;1460952;88;21317;-80
2023/10/21 00:42:23;;;;;;;19.15;6.08;;;;;;;20.86;51.17;98753.11;1465778;88;21398;-80
2023/10/21 00:44:49;;;;;;;12.82;5.15;;;;;;;20.83;50.97;98750.43;1460504;88;21391;-79
2023/10/21 00:47:16;;;;;;;24.02;5.45;;;;;;;20.83;51.05;98754.97;1465526;88;21391;-79
2023/10/21 00:49:42;;;;;;;21.37;5.95;;;;;;;20.82;51.13;98755.51;1466053;89;21414;-79
2023/10/21 00:52:10;;;;;;;16.52;5.10;;;;;;;20.80;51.19;98756.83;1455441;89;21428;-80
2023/10/21 00:54:36;;;;;;;22.20;5.15;;;;;;;20.76;51.28;98757.07;1447320;89;21601;-80
2023/10/21 00:57:03;;;;;;;19.32;5.22;;;;;;;20.71;51.25;98754.62;1455984;88;21465;-80
2023/10/21 00:59:30;;;;;;;21.30;6.83;;;;;;;20.69;51.19;98762.66;1449590;89;21466;-80
2023/10/21 01:01:56;;;;;;;18.05;4.70;;;;;;;20.68;50.98;98764.52;1448976;90;21443;-80
2023/10/21 01:04:23;;;;;;;20.90;5.28;;;;;;;20.69;51.18;98766.69;1455423;89;21355;-80
2023/10/21 01:06:49;;;;;;;23.57;4.20;;;;;;;20.65;50.62;98766.37;1453708;89;21458;-79
2023/10/21 01:09:15;;;;;;;16.05;4.83;;;;;;;20.68;50.88;98763.70;1455170;89;22346;-79
2023/10/21 01:11:42;;;;;;;24.67;5.22;;;;;;;20.64;50.62;98759.37;1451956;90;21332;-80
2023/10/21 01:14:09;;;;;;;22.05;5.30;;;;;;;20.61;50.65;98762.58;1453099;90;21591;-80
2023/10/21 01:16:35;;;;;;;22.95;5.62;;;;;;;20.62;50.53;98762.84;1446157;89;21450;-80
2023/10/21 01:19:03;;;;;;;16.40;5.95;;;;;;;20.60;50.04;98769.03;1456761;89;21443;-79
2023/10/21 01:21:29;;;;;;;22.20;6.25;;;;;;;20.62;50.44;98765.53;1458323;89;21441;-79
2023/10/21 01:23:56;;;;;;;18.25;4.47;;;;;;;20.63;50.32;98763.14;1450474;89;22177;-79
2023/10/21 01:26:22;;;;;;;16.67;4.83;;;;;;;20.65;49.93;98766.37;1454832;89;22560;-79
2023/10/21 01:28:49;;;;;;;22.42;4.85;;;;;;;20.68;49.53;98761.83;1456540;90;21429;-79
2023/10/21 01:31:15;;;;;;;21.40;5.60;;;;;;;20.72;50.10;98769.67;1452756;90;21391;-79
2023/10/21 01:33:41;;;;;;;15.30;4.33;;;;;;;20.73;49.94;98769.95;1450676;89;22330;-80
2023/10/21 01:36:07;;;;;;;18.02;5.60;;;;;;;20.77;49.54;98773.47;1418166;90;21473;-80
2023/10/21 01:38:33;;;;;;;13.00;4.55;;;;;;;20.79;49.58;98772.69;1453112;90;21398;-79
2023/10/21 01:41:00;;;;;;;17.85;5.00;;;;;;;20.84;49.79;98776.78;1448756;90;22315;-81
2023/10/21 01:43:27;;;;;;;24.00;5.17;;;;;;;20.85;49.51;98773.02;1450100;89;21444;-80
2023/10/21 01:45:54;;;;;;;19.23;5.37;;;;;;;20.89;49.46;98784.36;1443846;90;22816;-80
2023/10/21 01:48:20;;;;;;;20.60;4.83;;;;;;;20.92;49.45;98777.66;1448623;90;22541;-80
2023/10/21 01:50:47;;;;;;;22.75;4.47;;;;;;;20.96;49.23;98773.39;1450153;90;21340;-80
2023/10/21 01:53:13;;;;;;;23.55;5.72;;;;;;;20.98;48.86;98777.98;1454882;89;21496;-81
2023/10/21 01:55:39;;;;;;;16.23;5.12;;;;;;;21.02;49.25;98780.97;1460429;90;22369;-80
2023/10/21 01:58:06;;;;;;;19.02;4.72;;;;;;;21.05;48.91;98767.00;1456364;88;21594;-80
2023/10/21 02:00:32;;;;;;;17.05;5.92;;;;;;;21.11;48.55;98774.84;1466539;89;21436;-80
2023/10/21 02:02:58;;;;;;;11.83;4.35;;;;;;;21.17;48.82;98773.81;1458804;89;21591;-80
2023/10/21 02:05:25;;;;;;;18.85;5.47;;;;;;;21.19;48.73;98778.42;1461377;89;22396;-79
2023/10/21 02:07:52;;;;;;;19.32;5.50;;;;;;;21.23;48.24;98775.21;1463558;89;21413;-81
2023/10/21 02:10:19;;;;;;;22.58;5.60;;;;;;;21.26;48.38;98771.50;1458996;89;21339;-80
2023/10/21 02:12:45;;;;;;;20.48;5.90;;;;;;;21.29;48.06;98788.47;1419936;89;21435;-82
2023/10/21 02:15:12;;;;;;;21.20;4.80;;;;;;;21.31;48.42;98794.92;1457736;89;22337;-81
2023/10/21 02:17:39;;;;;;;16.32;4.33;;;;;;;21.31;48.07;98789.00;1447236;89;21414;-82
2023/10/21 02:20:08;;;;;;;18.20;5.92;;;;;;;21.34;47.68;98787.67;1451753;89;22028;-82
2023/10/21 02:22:34;;;;;;;30.08;5.37;;;;;;;21.37;48.22;98787.19;1458186;89;21398;-80
2023/10/21 02:25:01;;;;;;;15.85;4.65;;;;;;;21.37;48.13;98784.50;1441647;89;21354;-80
2023/10/21 02:27:28;;;;;;;20.37;4.95;;;;;;;21.40;47.87;98790.70;1455295;88;21413;-78
2023/10/21 02:29:54;;;;;;;16.10;5.37;;;;;;;21.43;47.75;98792.88;1459316;89;21517;-79
2023/10/21 02:32:20;;;;;;;16.02;5.03;;;;;;;21.48;47.88;98790.77;1456813;89;22247;-79
2023/10/21 02:34:46;;;;;;;24.52;5.37;;;;;;;21.51;47.33;98797.79;1448152;89;21361;-79
2023/10/21 02:37:13;;;;;;;20.12;4.80;;;;;;;21.48;47.73;98787.54;1458516;89;21340;-79
2023/10/21 02:39:39;;;;;;;23.50;6.75;;;;;;;21.55;47.65;98793.53;1460207;89;22891;-80
2023/10/21 02:42:06;;;;;;;19.90;4.62;;;;;;;21.57;47.13;98791.36;1459577;89;21428;-80
2023/10/21 02:44:32;;;;;;;19.52;4.45;;;;;;;21.61;47.40;98802.45;1459452;89;21325;-80
2023/10/21 02:46:58;;;;;;;16.60;4.10;;;;;;;21.60;47.24;98796.23;1461867;89;22123;-81
2023/10/21 02:49:24;;;;;;;15.40;4.97;;;;;;;21.60;47.26;98805.65;1450697;89;21376;-80
2023/10/21 02:51:52;;;;;;;20.10;4.97;;;;;;;21.55;47.42;98796.22;1454435;89;21949;-80
2023/10/21 02:54:18;;;;;;;17.77;4.85;;;;;;;21.55;47.42;98796.22;1440686;89;21516;-80
2023/10/21 02:56:44;;;;;;;18.05;5.12;;;;;;;21.57;47.56;98804.02;1447295;88;22594;-81
2023/10/21 02:59:10;;;;;;;24.27;6.05;;;;;;;21.56;47.45;98813.98;1453046;90;22285;-82
2023/10/21 03:01:36;;;;;;;16.17;5.85;;;;;;;21.55;47.72;98808.33;1458304;89;21615;-81
2023/10/21 03:04:03;;;;;;;14.43;4.33;;;;;;;21.53;47.67;98814.50;1451569;90;22379;-81
2023/10/21 03:06:29;;;;;;;19.90;5.45;;;;;;;21.48;47.82;98823.06;1446718;89;21512;-81
2023/10/21 03:08:55;;;;;;;23.07;5.45;;;;;;;21.48;47.82;98823.06;1455260;89;21373;-80
2023/10/21 03:11:23;;;;;;;16.25;3.92;;;;;;;21.44;47.75;98817.94;1449519;89;21385;-81
2023/10/21 03:13:50;;;;;;;19.02;4.97;;;;;;;21.45;48.03;98820.89;1455976;89;21458;-81
2023/10/21 03:16:16;;;;;;;13.32;5.17;;;;;;;21.45;48.03;98820.89;1451140;89;21502;-81
2023/10/21 03:18:45;;;;;;;16.25;4.37;;;;;;;21.43;47.62;98823.83;1449375;90;21377;-79
2023/10/21 03:21:11;;;;;;;21.23;5.47;;;;;;;21.44;47.65;98822.78;1460336;89;21406;-79
2023/10/21 03:23:37;;;;;;;17.85;5.03;;;;;;;21.44;47.83;98818.74;1448658;89;22171;-79
2023/10/21 03:26:06;;;;;;;20.20;5.22;;;;;;;21.42;47.03;98815.48;1460503;89;21341;-80
2023/10/21 03:28:38;;;;;;;22.80;4.37;;;;;;;21.44;46.74;98812.55;1444596;90;21563;-79
2023/10/21 03:31:06;;;;;;;14.13;4.08;;;;;;;21.44;46.56;98824.12;1453525;89;21362;-81
2023/10/21 03:33:33;;;;;;;17.73;4.92;;;;;;;21.44;46.79;98818.74;1448711;90;21436;-81
2023/10/21 03:36:06;;;;;;;31.60;4.90;;;;;;;21.43;46.98;98823.83;1453929;90;21304;-80
2023/10/21 03:38:33;;;;;;;15.75;5.08;;;;;;;21.44;47.02;98818.74;1456069;90;21421;-79
2023/10/21 03:41:11;;;;;;;20.70;5.72;;;;;;;21.44;46.92;98824.66;1448185;90;21421;-83
2023/10/21 03:43:38;;;;;;;9.85;4.47;;;;;;;21.42;47.09;98828.95;1460063;89;22294;-79
2023/10/21 03:46:07;;;;;;;12.80;4.72;;;;;;;21.40;46.83;98831.88;1453937;89;21443;-79
2023/10/21 03:48:35;;;;;;;19.05;4.65;;;;;;;21.40;46.83;98831.88;1450181;89;21398;-80
2023/10/21 03:51:06;;;;;;;22.70;5.33;;;;;;;21.40;47.17;98829.73;1465061;89;21347;-80
2023/10/21 03:53:33;;;;;;;16.00;4.92;;;;;;;21.36;47.14;98822.71;1455728;89;21376;-81
2023/10/21 03:56:01;;;;;;;32.85;5.47;;;;;;;21.36;47.14;98822.71;1457971;89;21347;-81
2023/10/21 03:58:27;;;;;;;28.25;7.17;;;;;;;21.37;47.08;98820.28;1457399;89;22271;-82
2023/10/21 04:00:54;;;;;;;14.98;4.17;;;;;;;21.41;46.92;98816.56;1461993;89;21553;-81
2023/10/21 04:03:21;;;;;;;16.73;4.33;;;;;;;21.43;46.97;98832.44;1458696;88;21399;-81
2023/10/21 04:05:47;;;;;;;15.53;4.30;;;;;;;21.41;46.76;98830.02;1443950;89;22286;-80
2023/10/21 04:08:13;;;;;;;26.25;4.83;;;;;;;21.42;47.02;98827.59;1461050;89;21362;-82
2023/10/21 04:10:40;;;;;;;22.87;4.78;;;;;;;21.42;46.89;98825.45;1463102;89;21289;-82
2023/10/21 04:13:06;;;;;;;11.63;3.92;;;;;;;21.34;47.04;98818.63;1455222;89;21334;-81
2023/10/21 04:15:32;;;;;;;17.82;3.65;;;;;;;21.34;47.04;98818.63;1452756;89;21583;-82
2023/10/21 04:17:58;;;;;;;17.07;5.25;;;;;;;21.37;47.08;98832.94;1462415;88;22276;-82
2023/10/21 04:20:25;;;;;;;17.12;4.45;;;;;;;21.36;47.00;98845.58;1464574;88;22294;-83
2023/10/21 04:22:51;;;;;;;20.27;5.53;;;;;;;21.36;47.22;98838.02;1458195;89;21936;-82
2023/10/21 04:25:17;;;;;;;20.32;4.58;;;;;;;21.36;47.19;98840.70;1447111;89;21506;-84
2023/10/21 04:27:44;;;;;;;18.95;4.92;;;;;;;21.34;47.34;98840.14;1446061;88;22257;-84
2023/10/21 04:30:12;;;;;;;17.48;5.00;;;;;;;21.30;47.10;98843.08;1458073;89;21376;-87
2023/10/21 04:32:38;;;;;;;21.55;4.80;;;;;;;21.31;47.45;98858.15;1460422;89;21598;-82
2023/10/21 04:35:05;;;;;;;21.35;5.50;;;;;;;21.26;47.52;98852.20;1448646;89;22337;-83
2023/10/21 04:37:31;;;;;;;20.08;4.33;;;;;;;21.22;47.58;98861.84;1467798;89;21406;-82
2023/10/21 04:39:58;;;;;;;14.63;4.95;;;;;;;21.20;47.63;98857.23;1459096;89;21532;-80
2023/10/21 04:42:24;;;;;;;18.55;5.00;;;;;;;21.19;47.66;98859.66;1446171;89;21355;-84
2023/10/21 04:44:51;;;;;;;17.02;4.55;;;;;;;21.16;47.56;98862.86;1452223;89;21346;-80
2023/10/21 04:47:18;;;;;;;30.48;5.97;;;;;;;21.16;47.42;98865.55;1455863;89;21405;-81
2023/10/21 04:49:44;;;;;;;19.80;5.55;;;;;;;21.15;47.69;98862.59;1468265;89;21413;-79
2023/10/21 04:52:12;;;;;;;19.30;5.80;;;;;;;21.12;47.37;98870.64;1459472;89;21382;-79
2023/10/21 04:54:38;;;;;;;15.10;4.65;;;;;;;21.14;47.68;98875.20;1454788;89;21464;-80
2023/10/21 04:57:05;;;;;;;21.10;4.83;;;;;;;21.14;47.49;98881.13;1458645;89;21348;-80
2023/10/21 04:59:31;;;;;;;19.82;4.97;;;;;;;21.16;47.34;98895.14;1456826;89;22264;-80
2023/10/21 05:01:57;;;;;;;17.87;6.30;;;;;;;21.16;47.60;98897.83;1450509;88;22412;-83
2023/10/21 05:04:23;;;;;;;18.30;4.00;;;;;;;21.12;47.72;98909.64;1460042;89;21354;-81
2023/10/21 05:06:50;;;;;;;16.02;4.28;;;;;;;21.08;47.59;98919.80;1455291;89;22279;-79
2023/10/21 05:09:17;;;;;;;29.02;7.10;;;;;;;21.04;47.86;98920.84;1456253;89;22330;-80
2023/10/21 05:11:43;;;;;;;27.30;5.30;;;;;;;21.01;47.86;98924.05;1457879;89;21488;-80
2023/10/21 05:14:10;;;;;;;13.15;4.00;;;;;;;20.98;47.91;98934.50;1460042;89;21435;-80
2023/10/21 05:16:36;;;;;;;19.90;4.33;;;;;;;20.95;48.05;98931.24;1454962;89;22286;-80
2023/10/21 05:19:04;;;;;;;16.40;4.20;;;;;;;20.93;48.17;98934.70;1445086;89;21539;-80
2023/10/21 05:21:32;;;;;;;24.25;4.40;;;;;;;20.93;48.00;98937.93;1456919;89;21324;-80
2023/10/21 05:23:58;;;;;;;24.87;4.72;;;;;;;20.90;48.16;98943.81;1452548;89;21376;-79
2023/10/21 05:26:28;;;;;;;14.85;4.62;;;;;;;20.90;48.11;98943.28;1451607;89;22427;-79
2023/10/21 05:28:54;;;;;;;19.27;4.47;;;;;;;20.89;47.97;98957.80;1457404;89;22374;-79
2023/10/21 05:31:21;;;;;;;15.70;4.15;;;;;;;20.89;48.00;98961.83;1454962;89;21535;-79
2023/10/21 05:33:47;;;;;;;24.92;5.60;;;;;;;20.91;47.92;98960.22;1457285;89;21376;-79
2023/10/21 05:36:13;;;;;;;22.37;4.42;;;;;;;20.91;48.12;98962.91;1464735;89;22723;-80
2023/10/21 05:38:40;;;;;;;14.07;4.28;;;;;;;20.92;48.04;98975.31;1454035;89;21473;-79
2023/10/21 05:41:06;;;;;;;25.32;5.87;;;;;;;20.91;48.12;98975.01;1462368;88;21392;-80
2023/10/21 05:43:32;;;;;;;16.20;4.58;;;;;;;20.89;48.00;98981.19;1456615;89;22293;-80
2023/10/21 05:46:03;;;;;;;20.77;6.35;;;;;;;20.87;48.05;98986.80;1448300;89;21281;-81
2023/10/21 05:48:30;;;;;;;22.27;5.75;;;;;;;20.87;48.12;98996.75;1457331;89;21414;-80
2023/10/21 05:51:02;;;;;;;15.30;5.17;;;;;;;20.86;48.22;98995.94;1454329;89;21324;-80
2023/10/21 05:53:29;;;;;;;15.05;3.83;;;;;;;20.86;48.23;98999.14;1459914;89;21384;-81
2023/10/21 05:55:57;;;;;;;13.20;4.28;;;;;;;20.85;48.14;99001.56;1464380;89;21309;-80
2023/10/21 05:58:29;;;;;;;18.60;4.40;;;;;;;20.86;48.06;99003.17;1464597;88;21487;-78
2023/10/21 06:00:55;;;;;;;22.90;5.10;;;;;;;20.87;48.22;99004.82;1459223;89;21407;-79
2023/10/21 06:03:21;;;;;;;14.15;4.83;;;;;;;20.88;48.28;99012.63;1462170;89;21391;-79
2023/10/21 06:05:48;;;;;;;15.63;4.70;;;;;;;20.87;48.19;99024.98;1456532;90;22279;-79
2023/10/21 06:08:14;;;;;;;23.57;5.08;;;;;;;20.88;48.33;99025.25;1450989;89;21429;-79
2023/10/21 06:10:44;;;;;;;20.10;5.22;;;;;;;20.88;48.38;99038.70;1449325;90;22324;-80
2023/10/21 06:13:09;;;;;;;25.90;5.28;;;;;;;20.86;48.25;99034.09;1448412;89;21429;-79
2023/10/21 06:15:37;;;;;;;16.90;4.87;;;;;;;20.85;48.15;99041.89;1463866;89;21569;-79
2023/10/21 06:18:04;;;;;;;25.48;5.50;;;;;;;20.85;48.48;99041.89;1457999;89;21317;-80
2023/10/21 06:20:31;;;;;;;18.00;4.62;;;;;;;20.81;48.26;99050.19;1452777;89;22264;-80
2023/10/21 06:22:58;;;;;;;15.00;4.62;;;;;;;20.81;48.33;99054.22;1452949;89;21385;-79
2023/10/21 06:25:24;;;;;;;20.43;5.28;;;;;;;20.80;48.45;99060.63;1454594;89;21421;-79
2023/10/21 06:27:50;;;;;;;32.03;6.30;;;;;;;20.78;48.59;99061.44;1452599;89;21451;-78
2023/10/21 06:30:17;;;;;;;15.03;4.08;;;;;;;20.78;48.78;99069.50;1439137;90;22315;-80
2023/10/21 06:32:43;;;;;;;13.83;4.35;;;;;;;20.75;48.88;99076.72;1445036;90;21428;-80
2023/10/21 06:35:09;;;;;;;20.90;6.15;;;;;;;20.75;48.94;99080.22;1451223;89;22279;-79
2023/10/21 06:37:35;;;;;;;16.82;4.60;;;;;;;20.74;49.04;99075.88;1456101;90;21347;-79
2023/10/21 06:40:01;;;;;;;27.48;5.50;;;;;;;20.72;48.97;99073.45;1453042;89;21384;-82
2023/10/21 06:42:28;;;;;;;16.00;5.33;;;;;;;20.72;49.04;99080.17;1451694;89;22359;-80
2023/10/21 06:44:54;;;;;;;21.17;4.70;;;;;;;20.75;49.13;99091.50;1450195;89;21340;-79
2023/10/21 06:47:20;;;;;;;17.10;4.53;;;;;;;20.75;49.45;99095.53;1450354;90;21421;-79
2023/10/21 06:49:48;;;;;;;32.55;5.90;;;;;;;20.72;49.44;99094.95;1446150;90;22367;-79
2023/10/21 06:52:17;;;;;;;13.32;4.67;;;;;;;20.73;49.46;99093.89;1448075;89;21436;-79
2023/10/21 06:54:43;;;;;;;27.55;5.17;;;;;;;20.75;49.64;99098.22;1451609;89;21502;-79
2023/10/21 06:57:09;;;;;;;20.15;4.58;;;;;;;20.76;49.44;99089.09;1451052;90;21355;-78
2023/10/21 06:59:35;;;;;;;20.23;5.70;;;;;;;20.78;49.61;99095.84;1452002;88;21539;-78
2023/10/21 07:02:02;;;;;;;10.60;4.03;;;;;;;20.80;49.64;99099.62;1449103;89;21484;-78
2023/10/21 07:04:28;;;;;;;22.32;5.40;;;;;;;20.80;49.61;99092.89;1454324;89;21569;-79
2023/10/21 07:06:54;;;;;;;16.42;4.65;;;;;;;20.82;49.55;99097.50;1446615;90;21406;-80
2023/10/21 07:09:21;;;;;;;18.60;4.70;;;;;;;20.82;49.52;99114.45;1451268;89;21642;-80
2023/10/21 07:11:47;;;;;;;28.02;5.33;;;;;;;20.85;49.58;99122.55;1452590;90;21377;-80
2023/10/21 07:14:13;;;;;;;13.45;3.47;;;;;;;20.84;49.54;99118.25;1454875;89;21557;-79
2023/10/21 07:16:40;;;;;;;32.65;7.95;;;;;;;20.84;49.87;99129.81;1458916;90;21310;-78
2023/10/21 07:19:06;;;;;;;18.07;7.42;;;;;;;20.85;49.81;99125.24;1451127;90;22323;-79
2023/10/21 07:21:32;;;;;;;16.15;5.90;;;;;;;20.87;49.79;99129.86;1453194;89;21399;-79
2023/10/21 07:23:58;;;;;;;20.57;5.50;;;;;;;20.87;49.92;99145.98;1454870;90;21598;-80
2023/10/21 07:26:25;;;;;;;18.20;5.47;;;;;;;20.87;49.86;99146.80;1458005;89;22264;-79
2023/10/21 07:28:51;;;;;;;18.52;4.80;;;;;;;20.89;50.08;99160.02;1452840;89;21510;-78
2023/10/21 07:31:17;;;;;;;12.37;5.40;;;;;;;20.89;50.10;99164.05;1449866;89;21399;-80
2023/10/21 07:33:43;;;;;;;22.07;5.95;;;;;;;20.91;50.10;99167.28;1453084;89;22301;-78
2023/10/21 07:36:09;;;;;;;17.07;4.30;;;;;;;20.92;50.28;99168.93;1440167;90;21310;-79
2023/10/21 07:38:36;;;;;;;25.30;6.08;;;;;;;20.93;50.21;99170.02;1453458;90;21510;-81
2023/10/21 07:41:11;;;;;;;33.63;5.62;;;;;;;20.95;50.33;99173.81;1450765;89;22235;-79
2023/10/21 07:43:37;;;;;;;22.17;7.55;;;;;;;20.99;50.34;99171.44;1535620;90;21134;-79
2023/10/21 07:46:03;;;;;;;24.67;8.50;;;;;;;21.03;50.44;99180.13;1358141;91;21276;-80
2023/10/21 07:48:31;;;;;;;23.55;8.70;;;;;;;21.09;50.54;99180.48;1379642;89;21399;-79
2023/10/21 07:50:58;;;;;;;18.20;6.22;;;;;;;21.15;50.64;99186.22;1378013;89;21260;-79
2023/10/21 07:53:24;;;;;;;20.68;5.58;;;;;;;21.23;50.40;99191.69;1378263;90;22170;-79
2023/10/21 07:55:50;;;;;;;20.30;5.25;;;;;;;21.30;50.34;99188.31;1379326;89;21462;-79
2023/10/21 07:58:17;;;;;;;24.87;6.33;;;;;;;21.38;50.39;99193.84;1379538;90;21207;-79
2023/10/21 08:00:43;;;;;;;26.57;5.50;;;;;;;21.48;50.25;99194.49;1532225;89;21533;-80
2023/10/21 08:03:09;;;;;;;20.12;5.58;;;;;;;21.55;50.35;99194.61;1379671;89;21267;-79
2023/10/21 08:05:36;;;;;;;16.73;4.72;;;;;;;21.71;50.11;99197.48;1530930;90;21356;-78
2023/10/21 08:08:03;;;;;;;23.20;5.62;;;;;;;21.71;50.11;99197.48;1379602;89;21414;-80
2023/10/21 08:10:29;;;;;;;26.10;6.08;;;;;;;21.79;50.11;99205.94;1378434;90;21332;-79
2023/10/21 08:12:56;;;;;;;20.40;4.40;;;;;;;22.17;50.17;99214.18;1524589;89;22250;-79
2023/10/21 08:15:22;;;;;;;29.52;5.67;;;;;;;22.17;50.17;99214.18;1422871;89;21355;-80
2023/10/21 08:17:49;;;;;;;26.17;5.35;;;;;;;22.30;49.83;99214.63;1379223;90;21245;-80
2023/10/21 08:20:15;;;;;;;21.33;4.58;;;;;;;22.44;49.63;99223.13;1379017;89;22132;-78
2023/10/21 08:22:41;;;;;;;25.85;6.03;;;;;;;22.63;49.75;99222.21;1385017;90;21296;-79
2023/10/21 08:25:08;;;;;;;25.40;5.55;;;;;;;22.73;49.20;99220.16;1379913;90;21415;-80
2023/10/21 08:27:36;;;;;;;19.27;5.37;;;;;;;22.82;49.41;99216.45;1379257;89;21267;-80
2023/10/21 08:30:10;;;;;;;24.80;5.45;;;;;;;22.95;49.60;99212.80;1379487;89;21473;-78
2023/10/21 08:32:37;;;;;;;34.92;7.67;;;;;;;23.20;49.57;99210.82;1535450;89;21208;-78
2023/10/21 08:35:04;;;;;;;25.45;6.58;;;;;;;23.33;49.46;99221.72;1379210;90;21480;-79
2023/10/21 08:37:31;;;;;;;27.77;7.15;;;;;;;23.33;49.60;99224.41;1378941;89;21252;-83
2023/10/21 08:39:57;;;;;;;18.62;5.22;;;;;;;23.28;49.92;99233.83;1384192;89;21577;-79
2023/10/21 08:42:26;;;;;;;29.45;5.67;;;;;;;23.23;50.13;99236.48;1535429;89;21223;-79
2023/10/21 08:44:54;;;;;;;22.00;5.73;;;;;;;23.19;50.35;99231.34;1379978;89;22081;-80
2023/10/21 08:47:22;;;;;;;25.37;6.10;;;;;;;23.13;50.33;99235.88;1383865;90;21296;-81
2023/10/21 08:49:49;;;;;;;26.75;6.30;;;;;;;23.08;50.45;99245.28;1535428;89;21302;-80
2023/10/21 08:52:17;;;;;;;33.02;6.10;;;;;;;23.06;50.73;99248.77;1378958;89;21251;-80
2023/10/21 08:54:48;;;;;;;21.87;5.62;;;;;;;23.09;50.61;99254.19;1450011;89;21474;-79
2023/10/21 08:57:14;;;;;;;22.35;6.97;;;;;;;23.13;50.43;99256.64;1375656;89;21413;-80
2023/10/21 08:59:41;;;;;;;32.90;7.03;;;;;;;23.14;50.67;99266.38;1386965;89;22404;-81
2023/10/21 09:02:07;;;;;;;19.12;6.83;;;;;;;23.19;51.08;99277.22;1371413;90;21304;-80
2023/10/21 09:04:34;;;;;;;27.67;6.87;;;;;;;23.27;50.86;99274.02;1384779;89;21326;-81
2023/10/21 09:07:02;;;;;;;29.77;6.35;;;;;;;23.74;50.36;99266.53;1389813;89;22331;-80
2023/10/21 09:09:29;;;;;;;22.85;5.53;;;;;;;24.49;49.49;99262.23;1541747;89;21326;-81
2023/10/21 09:12:13;;;;;;;24.37;5.03;;;;;;;25.22;47.36;99263.38;1383776;89;21281;-80
2023/10/21 09:14:59;;;;;;;20.50;5.92;;;;;;;25.60;47.49;99261.14;1474377;89;21303;-80
2023/10/21 09:18:01;;;;;;;13.93;4.10;;;;;;;25.34;47.43;99273.92;1541648;89;21216;-78
2023/10/21 09:20:17;;;;;;;25.15;6.95;;;;;;;24.90;47.95;99277.97;1533704;89;21289;-79
2023/10/21 09:22:51;;;;;;;21.87;5.65;;;;;;;24.52;48.76;99288.75;1541595;89;21208;-79
2023/10/21 09:25:20;;;;;;;25.62;5.30;;;;;;;24.23;49.27;99287.82;1539330;88;21488;-79
2023/10/21 09:27:58;;;;;;;26.42;5.97;;;;;;;24.02;49.85;99288.80;1381220;89;21319;-80
2023/10/21 09:30:28;;;;;;;21.40;6.58;;;;;;;23.85;50.22;99288.47;1535710;89;22110;-79
2023/10/21 09:33:07;;;;;;;25.40;6.20;;;;;;;23.70;50.66;99293.77;1387414;89;21295;-78
2023/10/21 09:35:36;;;;;;;28.00;5.60;;;;;;;23.60;50.99;99308.55;1427211;89;21273;-79
2023/10/21 09:38:16;;;;;;;20.90;5.87;;;;;;;23.48;51.34;99311.95;1387261;89;21362;-80
2023/10/21 09:40:44;;;;;;;16.75;4.55;;;;;;;23.39;51.63;99309.77;1382327;89;21377;-80
2023/10/21 09:43:13;;;;;;;25.30;5.85;;;;;;;23.35;52.05;99314.03;1382668;89;21481;-79
2023/10/21 09:45:44;;;;;;;30.65;4.97;;;;;;;23.33;52.17;99322.95;1387814;89;21237;-79
2023/10/21 09:48:11;;;;;;;22.93;5.05;;;;;;;23.27;52.30;99317.20;1541567;89;21267;-79
2023/10/21 09:50:45;;;;;;;19.87;4.83;;;;;;;23.21;52.50;99315.54;1540148;89;22213;-80
2023/10/21 09:53:15;;;;;;;15.32;4.58;;;;;;;23.15;52.73;99313.88;1522688;89;21267;-88
2023/10/21 09:55:42;;;;;;;19.60;4.72;;;;;;;23.09;52.83;99331.09;1461783;89;21531;-89
2023/10/21 09:58:09;;;;;;;16.57;4.70;;;;;;;23.04;53.22;99327.80;1458896;89;21376;-90
2023/10/21 10:00:37;;;;;;;16.65;4.95;;;;;;;23.03;53.56;99321.33;1454785;88;21539;-90
2023/10/21 10:03:09;;;;;;;19.87;4.75;;;;;;;23.01;53.75;99323.46;1454946;89;21354;-88
2023/10/21 10:05:33;;;;;;;28.23;5.95;;;;;;;23.02;53.89;99320.52;1451679;90;21591;-87
2023/10/21 10:08:00;;;;;;;14.43;4.37;;;;;;;23.03;53.97;99311.89;1449907;90;21532;-92
2023/10/21 10:10:27;;;;;;;21.33;5.58;;;;;;;23.02;54.16;99319.69;1451633;90;21518;-87
2023/10/21 10:13:06;;;;;;;19.65;6.05;;;;;;;23.01;54.39;99326.16;1455584;90;21370;-89
2023/10/21 10:15:37;;;;;;;22.98;4.33;;;;;;;22.97;54.65;99334.77;1450670;89;21495;-90
2023/10/21 10:18:19;;;;;;;17.20;4.75;;;;;;;22.91;54.89;99332.25;1529380;89;21281;-86
2023/10/21 10:20:49;;;;;;;26.63;6.37;;;;;;;22.89;55.00;99327.09;1535664;90;21383;-89
2023/10/21 10:23:17;;;;;;;17.32;5.35;;;;;;;22.88;55.27;99328.18;1440464;90;21930;-89
2023/10/21 10:25:49;;;;;;;20.17;4.85;;;;;;;22.92;55.44;99326.59;1452308;90;21629;-85
2023/10/21 10:28:27;;;;;;;25.75;5.37;;;;;;;22.95;55.74;99331.50;1535598;89;21414;-89
2023/10/21 10:30:56;;;;;;;22.37;5.60;;;;;;;22.97;55.64;99336.12;1529540;90;21514;-87
2023/10/21 10:33:35;;;;;;;16.48;4.28;;;;;;;23.00;55.77;99332.09;1508915;90;21267;-88
2023/10/21 10:36:06;;;;;;;19.07;5.05;;;;;;;22.99;55.80;99333.18;1389506;89;22117;-87
2023/10/21 10:38:36;;;;;;;24.77;5.57;;;;;;;23.01;55.82;99334.25;1415591;89;21458;-89
2023/10/21 10:41:11;;;;;;;16.30;4.40;;;;;;;22.98;56.02;99329.64;1454253;89;21340;-89
2023/10/21 10:44:01;;;;;;;21.75;5.50;;;;;;;22.99;56.16;99339.92;1452789;89;21436;-90
2023/10/21 10:46:25;;;;;;;25.82;5.58;;;;;;;22.95;56.25;99344.99;1453238;89;21569;-89
2023/10/21 10:48:52;;;;;;;18.82;5.80;;;;;;;22.94;56.40;99342.53;1452621;89;21354;-93
2023/10/21 10:51:23;;;;;;;15.80;4.30;;;;;;;22.93;56.66;99339.53;1455718;90;21362;-88
2023/10/21 10:53:56;;;;;;;21.90;6.03;;;;;;;22.94;56.58;99347.93;1454031;89;21509;-88
2023/10/21 10:56:27;;;;;;;29.57;6.20;;;;;;;22.96;56.70;99348.53;1454990;89;21407;-91
2023/10/21 10:58:54;;;;;;;25.15;5.58;;;;;;;23.03;56.48;99345.62;1454144;89;21384;-89
2023/10/21 11:01:27;;;;;;;23.15;6.87;;;;;;;23.12;56.25;99340.03;1448816;89;21451;-91
2023/10/21 11:03:58;;;;;;;23.10;5.60;;;;;;;23.23;56.49;99340.39;1462814;89;21554;-86
2023/10/21 11:06:37;;;;;;;25.10;5.42;;;;;;;23.32;56.05;99346.95;1463449;89;21354;-89
2023/10/21 11:09:05;;;;;;;18.23;5.67;;;;;;;23.47;55.83;99337.34;1465595;89;21391;-90
2023/10/21 11:11:51;;;;;;;18.73;5.05;;;;;;;23.89;55.71;99343.33;1465509;89;21358;-90
2023/10/21 11:14:18;;;;;;;24.40;4.90;;;;;;;24.29;54.65;99347.58;1456848;88;21605;-86
2023/10/21 11:16:45;;;;;;;19.70;4.78;;;;;;;24.48;53.06;99341.72;1462155;88;21486;-89
2023/10/21 11:19:12;;;;;;;23.00;4.83;;;;;;;24.54;52.21;99337.95;1387049;88;21184;-89
2023/10/21 11:21:39;;;;;;;19.23;4.15;;;;;;;24.59;51.97;99337.16;1377382;90;21273;-87
2023/10/21 11:24:08;;;;;;;25.92;4.17;;;;;;;24.67;51.85;99346.93;1510341;89;21310;-90
2023/10/21 11:26:35;;;;;;;15.72;3.87;;;;;;;24.65;51.47;99350.43;1385532;88;21340;-90